Check out our new BloomSky Weather System.

Active alerts

Houston, TX
  Details for Houston, TX Areal Flood Advisory


Thunder radar  blitzortung!


Rain radar more information rain snow radar


Visit our other weather sites:

Template documentation
and downloads

And another site



Weather Underground History page Text

Daily Summary for March 21, 2017 Units:  Metric    English   Both
« Previous Day
Next Day »
Daily Weekly Monthly Yearly Custom
  High: Low: Average:
Temperature: -17.8 °C 16.7 °C 22.7 °C
Dew Point: -17.8 °C 14.6 °C 17.2 °C
Humidity: Humidity % 42 % 74 %
Wind Speed: 0 km/h 0 km/h 5.1 km/h
Wind Gust: 0 km/h - -
Wind:- - South
Pressure: 0 hPa 1016.1 hPa -
Precipitation: 0.25 mm    
Historical Graphs
 
 
Tabular Data for March 21, 2017
Time Temperature Dew Point Pressure Wind Wind Speed Wind Gust Humidity Rainfall Rate (Hourly)
-17.8 °C -17.8 °C 0 hPa Calm     Humidity % 0 mm
00:02 20.3 °C 18.4 °C 1019.5 hPa SSW 3.2 km/h 12.9 km/h 89 % 0 mm
00:07 20.2 °C 18.3 °C 1019.2 hPa SSE 3.2 km/h 12.9 km/h 89 % 0 mm
00:12 20.1 °C 18.2 °C 1019.2 hPa SW 4.8 km/h 9.7 km/h 89 % 0 mm
00:17 20 °C 18.3 °C 1019.2 hPa South 4.8 km/h 8 km/h 90 % 0 mm
00:22 19.9 °C 18.2 °C 1019.2 hPa South 4.8 km/h 6.4 km/h 90 % 0 mm
00:27 19.8 °C 18.1 °C 1019.2 hPa South 1.6 km/h 6.4 km/h 90 % 0 mm
00:32 19.8 °C 18.3 °C 1018.8 hPa South 6.4 km/h 11.3 km/h 91 % 0 mm
00:37 19.7 °C 18.2 °C 1018.8 hPa South 3.2 km/h 11.3 km/h 91 % 0 mm
00:42 19.7 °C 18.2 °C 1018.8 hPa SSE 3.2 km/h 11.3 km/h 91 % 0 mm
00:47 19.6 °C 18.1 °C 1018.8 hPa South 3.2 km/h 8 km/h 91 % 0 mm
00:52 19.6 °C 18.1 °C 1018.8 hPa SE 1.6 km/h 6.4 km/h 91 % 0 mm
00:57 19.5 °C 18 °C 1018.8 hPa South 1.6 km/h 6.4 km/h 91 % 0 mm
01:02 19.4 °C 18.1 °C 1018.8 hPa SSE 1.6 km/h 6.4 km/h 92 % 0 mm
01:07 19.3 °C 18 °C 1018.8 hPa SSW 1.6 km/h 4.8 km/h 92 % 0 mm
01:12 19.3 °C 18 °C 1018.8 hPa South 1.6 km/h 4.8 km/h 92 % 0 mm
01:17 19.1 °C 17.8 °C 1018.8 hPa SSE 1.6 km/h 3.2 km/h 92 % 0 mm
01:22 19.1 °C 17.9 °C 1018.8 hPa SE 1.6 km/h 3.2 km/h 93 % 0 mm
01:27 19.1 °C 17.9 °C 1018.8 hPa Calm   4.8 km/h 93 % 0 mm
01:32 19.1 °C 17.9 °C 1018.8 hPa South 3.2 km/h 4.8 km/h 93 % 0 mm
01:37 19.1 °C 18.1 °C 1018.8 hPa South 1.6 km/h 6.4 km/h 94 % 0 mm
01:42 19 °C 18 °C 1018.8 hPa South 1.6 km/h 6.4 km/h 94 % 0 mm
01:47 18.9 °C 17.9 °C 1018.8 hPa SE 3.2 km/h 6.4 km/h 94 % 0 mm
01:52 18.9 °C 17.9 °C 1018.8 hPa SSE 4.8 km/h 6.4 km/h 94 % 0 mm
01:57 18.9 °C 17.9 °C 1018.8 hPa SSE 6.4 km/h 8 km/h 94 % 0 mm
02:02 18.9 °C 17.9 °C 1018.8 hPa SSE 3.2 km/h 8 km/h 94 % 0 mm
02:03 18.9 °C 17.9 °C 1018.8 hPa SSE 1.6 km/h 8 km/h 94 % 0 mm
02:08 18.9 °C 17.9 °C 1018.8 hPa SSW 4.8 km/h 8 km/h 94 % 0 mm
02:13 18.8 °C 17.8 °C 1018.8 hPa SSE 3.2 km/h 8 km/h 94 % 0 mm
02:18 18.8 °C 17.8 °C 1018.5 hPa SSE 3.2 km/h 6.4 km/h 94 % 0 mm
02:23 18.8 °C 17.8 °C 1018.5 hPa SSW 1.6 km/h 6.4 km/h 94 % 0 mm
02:28 18.7 °C 17.9 °C 1018.5 hPa Calm   8 km/h 95 % 0 mm
02:33 18.7 °C 17.9 °C 1018.5 hPa SSW 3.2 km/h 8 km/h 95 % 0 mm
02:38 18.7 °C 17.9 °C 1018.5 hPa South 1.6 km/h 8 km/h 95 % 0 mm
02:43 18.6 °C 17.6 °C 1018.8 hPa South 3.2 km/h 6.4 km/h 94 % 0 mm
02:48 18.6 °C 17.8 °C 1018.5 hPa South 3.2 km/h 6.4 km/h 95 % 0 mm
02:53 18.5 °C 17.7 °C 1018.5 hPa Calm   4.8 km/h 95 % 0 mm
02:58 18.4 °C 17.6 °C 1018.5 hPa Calm   4.8 km/h 95 % 0 mm
03:03 18.3 °C 17.5 °C 1018.5 hPa SSE 1.6 km/h 4.8 km/h 95 % 0 mm
03:08 18.2 °C 17.4 °C 1018.5 hPa SSE 1.6 km/h 3.2 km/h 95 % 0 mm
03:13 18.2 °C 17.4 °C 1018.5 hPa SSW 1.6 km/h 3.2 km/h 95 % 0 mm
03:18 18.1 °C 17.3 °C 1018.5 hPa SSE 1.6 km/h 3.2 km/h 95 % 0 mm
03:23 18.1 °C 17.3 °C 1018.5 hPa SSE 1.6 km/h 3.2 km/h 95 % 0 mm
03:28 18 °C 17.2 °C 1018.2 hPa SSE 1.6 km/h 3.2 km/h 95 % 0 mm
03:33 18 °C 17.2 °C 1018.2 hPa SSE 1.6 km/h 4.8 km/h 95 % 0 mm
03:38 17.9 °C 17.1 °C 1018.2 hPa SSE 3.2 km/h 4.8 km/h 95 % 0 mm
03:43 17.9 °C 17.1 °C 1018.2 hPa Calm   4.8 km/h 95 % 0 mm
03:48 17.8 °C 17.2 °C 1018.2 hPa South 3.2 km/h 3.2 km/h 96 % 0 mm
03:53 17.8 °C 17.2 °C 1018.2 hPa Calm   3.2 km/h 96 % 0 mm
03:58 17.7 °C 17.1 °C 1017.8 hPa SSW 1.6 km/h 3.2 km/h 96 % 0 mm
04:03 17.7 °C 17.1 °C 1017.8 hPa Calm   3.2 km/h 96 % 0 mm
04:08 17.7 °C 17.1 °C 1017.8 hPa SSE 1.6 km/h 3.2 km/h 96 % 0 mm
04:13 17.7 °C 17.1 °C 1017.8 hPa SSE 1.6 km/h 3.2 km/h 96 % 0 mm
04:19 17.6 °C 17 °C 1017.8 hPa SE 1.6 km/h 3.2 km/h 96 % 0 mm
04:24 17.7 °C 17.1 °C 1017.8 hPa South 3.2 km/h 3.2 km/h 96 % 0 mm
04:29 17.6 °C 17 °C 1017.8 hPa Calm   3.2 km/h 96 % 0 mm
04:34 17.6 °C 17 °C 1017.8 hPa Calm   3.2 km/h 96 % 0 mm
04:39 17.4 °C 16.8 °C 1017.8 hPa SE 3.2 km/h 3.2 km/h 96 % 0 mm
04:44 17.5 °C 16.9 °C 1017.8 hPa Calm   3.2 km/h 96 % 0 mm
04:49 17.4 °C 16.8 °C 1018.2 hPa SSE 1.6 km/h 3.2 km/h 96 % 0 mm
04:54 17.4 °C 16.8 °C 1017.8 hPa Calm   3.2 km/h 96 % 0 mm
04:59 17.4 °C 16.9 °C 1018.2 hPa SE 1.6 km/h 3.2 km/h 97 % 0 mm
05:04 17.4 °C 16.9 °C 1018.2 hPa Calm   3.2 km/h 97 % 0 mm
05:09 17.3 °C 16.8 °C 1018.2 hPa SSW 1.6 km/h 3.2 km/h 97 % 0 mm
05:14 17.3 °C 16.8 °C 1018.2 hPa South 1.6 km/h 3.2 km/h 97 % 0 mm
05:19 17.3 °C 16.8 °C 1018.2 hPa SSW 1.6 km/h 3.2 km/h 97 % 0 mm
05:24 17.2 °C 16.7 °C 1018.2 hPa Calm   3.2 km/h 97 % 0 mm
05:29 17.1 °C 16.6 °C 1018.2 hPa Calm   3.2 km/h 97 % 0 mm
05:34 17 °C 16.5 °C 1018.2 hPa SSW 1.6 km/h 3.2 km/h 97 % 0 mm
05:39 17 °C 16.5 °C 1018.2 hPa SSE 1.6 km/h 3.2 km/h 97 % 0 mm
05:44 17 °C 16.5 °C 1018.5 hPa SSE 1.6 km/h 3.2 km/h 97 % 0 mm
05:49 16.9 °C 16.4 °C 1018.5 hPa Calm   3.2 km/h 97 % 0 mm
05:54 16.9 °C 16.4 °C 1018.5 hPa SSW 1.6 km/h 3.2 km/h 97 % 0 mm
05:59 16.9 °C 16.4 °C 1018.5 hPa SSW 1.6 km/h 3.2 km/h 97 % 0 mm
06:04 16.9 °C 16.4 °C 1018.5 hPa SE 1.6 km/h 1.6 km/h 97 % 0 mm
06:09 16.9 °C 16.6 °C 1018.5 hPa Calm   1.6 km/h 98 % 0 mm
06:14 16.9 °C 16.4 °C 1018.5 hPa Calm   1.6 km/h 97 % 0 mm
06:19 16.9 °C 16.6 °C 1018.5 hPa Calm   1.6 km/h 98 % 0 mm
06:24 16.9 °C 16.6 °C 1018.5 hPa SE 1.6 km/h 1.6 km/h 98 % 0 mm
06:29 16.8 °C 16.5 °C 1018.8 hPa Calm   1.6 km/h 98 % 0 mm
06:34 16.8 °C 16.5 °C 1018.8 hPa Calm   1.6 km/h 98 % 0 mm
06:39 16.8 °C 16.5 °C 1018.5 hPa SSE 1.6 km/h 1.6 km/h 98 % 0 mm
06:44 16.8 °C 16.5 °C 1018.8 hPa SSE 1.6 km/h 1.6 km/h 98 % 0 mm
06:49 16.8 °C 16.5 °C 1018.8 hPa Calm   1.6 km/h 98 % 0 mm
06:54 16.8 °C 16.5 °C 1018.8 hPa SSE 1.6 km/h 1.6 km/h 98 % 0 mm
06:59 16.8 °C 16.5 °C 1018.8 hPa Calm   1.6 km/h 98 % 0 mm
07:04 16.7 °C 16.4 °C 1018.8 hPa Calm   1.6 km/h 98 % 0 mm
07:09 16.8 °C 16.5 °C 1019.2 hPa South 1.6 km/h 1.6 km/h 98 % 0 mm
07:14 16.8 °C 16.5 °C 1019.2 hPa Calm   1.6 km/h 98 % 0 mm
07:19 16.7 °C 16.4 °C 1019.2 hPa South 1.6 km/h 1.6 km/h 98 % 0 mm
07:24 16.7 °C 16.4 °C 1019.2 hPa Calm   1.6 km/h 98 % 0 mm
07:29 16.7 °C 16.4 °C 1019.2 hPa Calm   1.6 km/h 98 % 0 mm
07:34 16.7 °C 16.4 °C 1019.2 hPa SSE 1.6 km/h 1.6 km/h 98 % 0 mm
07:40 16.7 °C 16.4 °C 1019.5 hPa Calm   1.6 km/h 98 % 0 mm
07:44 16.7 °C 16.4 °C 1019.5 hPa Calm   1.6 km/h 98 % 0 mm
07:49 16.7 °C 16.4 °C 1019.5 hPa Calm   1.6 km/h 98 % 0 mm
07:55 16.8 °C 16.5 °C 1019.5 hPa SSE 1.6 km/h 1.6 km/h 98 % 0 mm
08:00 17 °C 16.7 °C 1019.5 hPa SE 1.6 km/h 3.2 km/h 98 % 0 mm
08:05 17.3 °C 17.1 °C 1019.5 hPa Calm   3.2 km/h 99 % 0 mm
08:10 17.6 °C 17.3 °C 1019.5 hPa Calm   3.2 km/h 98 % 0 mm
08:15 17.8 °C 17.5 °C 1019.5 hPa South 1.6 km/h 3.2 km/h 98 % 0 mm
08:20 18 °C 17.7 °C 1019.9 hPa SSE 3.2 km/h 3.2 km/h 98 % 0 mm
08:25 18.3 °C 18 °C 1019.9 hPa SSW 3.2 km/h 3.2 km/h 98 % 0 mm
08:30 18.4 °C 18.1 °C 1019.9 hPa Calm   3.2 km/h 98 % 0 mm
08:35 18.6 °C 18.3 °C 1019.9 hPa SSW 1.6 km/h 4.8 km/h 98 % 0.25 mm
08:40 18.8 °C 18.3 °C 1019.9 hPa SSW 4.8 km/h 6.4 km/h 97 % 0.25 mm
08:41 18.8 °C 18.3 °C 1019.9 hPa SW 4.8 km/h 6.4 km/h 97 % 0.25 mm
08:46 18.9 °C 18.4 °C 1019.9 hPa South 1.6 km/h 9.7 km/h 97 % 0.25 mm
08:51 19.3 °C 18.8 °C 1019.9 hPa SSW 4.8 km/h 9.7 km/h 97 % 0.25 mm
08:56 19.6 °C 18.9 °C 1019.9 hPa SSW 4.8 km/h 9.7 km/h 96 % 0.25 mm
09:01 19.7 °C 18.9 °C 1019.9 hPa SSW 4.8 km/h 9.7 km/h 95 % 0.25 mm
09:06 19.9 °C 18.9 °C 1020.2 hPa South 3.2 km/h 9.7 km/h 94 % 0.25 mm
09:11 20.3 °C 19.1 °C 1019.9 hPa SSW 8 km/h 12.9 km/h 93 % 0.25 mm
09:12 20.3 °C 19 °C 1019.9 hPa SSW 6.4 km/h 12.9 km/h 92 % 0.25 mm
09:17 20.6 °C 19.1 °C 1020.2 hPa SE 8 km/h 12.9 km/h 91 % 0.25 mm
09:22 20.8 °C 19.1 °C 1019.9 hPa SW 4.8 km/h 12.9 km/h 90 % 0.25 mm
09:27 21.2 °C 19.1 °C 1019.9 hPa SSE 4.8 km/h 12.9 km/h 88 % 0.25 mm
09:32 21.6 °C 19.3 °C 1019.9 hPa SW 11.3 km/h 11.3 km/h 87 % 0 mm
09:37 21.8 °C 19.2 °C 1019.9 hPa South 6.4 km/h 14.5 km/h 85 % 0 mm
09:42 22.1 °C 19.1 °C 1019.9 hPa SSW 3.2 km/h 16.1 km/h 83 % 0 mm
09:47 22.4 °C 19 °C 1019.9 hPa SSW 6.4 km/h 16.1 km/h 81 % 0 mm
09:53 22.7 °C 19.3 °C 1019.9 hPa South 4.8 km/h 17.7 km/h 81 % 0 mm
09:58 22.8 °C 19 °C 1020.2 hPa SE 8 km/h 17.7 km/h 79 % 0 mm
10:03 23 °C 19 °C 1020.2 hPa SW 12.9 km/h 17.7 km/h 78 % 0 mm
10:08 22.9 °C 18.4 °C 1020.2 hPa South 11.3 km/h 19.3 km/h 76 % 0 mm
10:13 23.1 °C 18.6 °C 1020.5 hPa SSW 8 km/h 19.3 km/h 76 % 0 mm
10:18 23.4 °C 18.9 °C 1020.5 hPa SSE 6.4 km/h 19.3 km/h 76 % 0 mm
10:23 23.5 °C 18.8 °C 1020.5 hPa South 6.4 km/h 24.1 km/h 75 % 0 mm
10:28 23.5 °C 18.4 °C 1020.5 hPa SSW 16.1 km/h 24.1 km/h 73 % 0 mm
10:33 23.4 °C 18.3 °C 1020.5 hPa South 8 km/h 24.1 km/h 73 % 0 mm
10:38 23.4 °C 18.3 °C 1020.5 hPa SSW 9.7 km/h 20.9 km/h 73 % 0 mm
10:43 23.5 °C 18.4 °C 1020.5 hPa SW 9.7 km/h 24.1 km/h 73 % 0 mm
10:48 23.8 °C 18.4 °C 1020.5 hPa East 9.7 km/h 24.1 km/h 72 % 0 mm
10:53 23.9 °C 18.5 °C 1020.5 hPa SE 6.4 km/h 24.1 km/h 72 % 0 mm
10:58 24.2 °C 18.6 °C 1020.5 hPa SSW 6.4 km/h 19.3 km/h 71 % 0 mm
11:03 24.4 °C 19 °C 1020.5 hPa SSE 8 km/h 19.3 km/h 72 % 0 mm
11:08 24.6 °C 18.3 °C 1020.5 hPa SSE 11.3 km/h 19.3 km/h 68 % 0 mm
11:13 24.6 °C 18.3 °C 1020.5 hPa SE 4.8 km/h 17.7 km/h 68 % 0 mm
11:18 24.9 °C 18.3 °C 1020.5 hPa SW 6.4 km/h 17.7 km/h 67 % 0 mm
11:23 25.2 °C 18.4 °C 1020.5 hPa WSW 9.7 km/h 19.3 km/h 66 % 0 mm
11:28 25.3 °C 18.5 °C 1020.5 hPa SSW 3.2 km/h 19.3 km/h 66 % 0 mm
11:33 25.6 °C 18.8 °C 1020.5 hPa Calm   19.3 km/h 66 % 0 mm
11:38 25.7 °C 18.4 °C 1020.5 hPa SW 11.3 km/h 17.7 km/h 64 % 0 mm
11:43 25.8 °C 18.7 °C 1020.5 hPa SSW 8 km/h 17.7 km/h 65 % 0 mm
11:48 26 °C 18.7 °C 1020.2 hPa SSE 6.4 km/h 14.5 km/h 64 % 0 mm
11:53 26.1 °C 18.8 °C 1020.2 hPa South 9.7 km/h 14.5 km/h 64 % 0 mm
11:58 26.1 °C 17.7 °C 1020.2 hPa SSW 11.3 km/h 14.5 km/h 60 % 0 mm
12:03 25.9 °C 18.3 °C 1020.2 hPa SE 4.8 km/h 16.1 km/h 63 % 0 mm
12:08 26.1 °C 18.2 °C 1020.2 hPa SW 11.3 km/h 17.7 km/h 62 % 0 mm
12:13 26.1 °C 18.2 °C 1020.2 hPa SE 6.4 km/h 17.7 km/h 62 % 0 mm
12:18 26.2 °C 18.3 °C 1019.9 hPa SSW 4.8 km/h 17.7 km/h 62 % 0 mm
12:19 26.2 °C 17.8 °C 1019.9 hPa ESE 6.4 km/h 17.7 km/h 60 % 0 mm
12:24 26.3 °C 17.6 °C 1019.9 hPa SSW 8 km/h 17.7 km/h 59 % 0 mm
12:29 26.2 °C 17.6 °C 1019.9 hPa SSW 6.4 km/h 17.7 km/h 59 % 0 mm
12:34 26.6 °C 17.7 °C 1019.9 hPa South 6.4 km/h 19.3 km/h 58 % 0 mm
12:39 26.8 °C 18.6 °C 1019.9 hPa SSE 8 km/h 19.3 km/h 61 % 0 mm
12:44 27 °C 17.8 °C 1019.9 hPa ESE 11.3 km/h 19.3 km/h 57 % 0 mm
12:49 26.9 °C 17.7 °C 1019.5 hPa SSE 6.4 km/h 17.7 km/h 57 % 0 mm
12:54 26.9 °C 18.2 °C 1019.5 hPa South 11.3 km/h 17.7 km/h 59 % 0 mm
12:59 26.9 °C 17.4 °C 1019.5 hPa SSW 8 km/h 17.7 km/h 56 % 0 mm
13:04 27.3 °C 17.2 °C 1019.5 hPa South 9.7 km/h 17.7 km/h 54 % 0 mm
13:09 27.3 °C 17.5 °C 1019.5 hPa SSW 8 km/h 16.1 km/h 55 % 0 mm
13:14 27.2 °C 17.4 °C 1019.2 hPa SW 14.5 km/h 17.7 km/h 55 % 0 mm
13:19 27.3 °C 17.2 °C 1019.2 hPa South 11.3 km/h 19.3 km/h 54 % 0 mm
13:24 27.4 °C 17.3 °C 1019.2 hPa South 6.4 km/h 19.3 km/h 54 % 0 mm
13:29 27.5 °C 17.9 °C 1018.8 hPa SE 11.3 km/h 19.3 km/h 56 % 0 mm
13:34 27.6 °C 17.2 °C 1018.8 hPa SW 14.5 km/h 19.3 km/h 53 % 0 mm
13:39 27.7 °C 17.2 °C 1018.8 hPa WSW 9.7 km/h 19.3 km/h 53 % 0 mm
13:44 27.8 °C 17 °C 1018.8 hPa SSE 3.2 km/h 19.3 km/h 52 % 0 mm
13:49 28.1 °C 17.3 °C 1018.8 hPa SSW 4.8 km/h 19.3 km/h 52 % 0 mm
13:54 28.2 °C 18 °C 1018.5 hPa SW 16.1 km/h 17.7 km/h 54 % 0 mm
13:59 28 °C 17.8 °C 1018.5 hPa South 3.2 km/h 17.7 km/h 54 % 0 mm
14:04 28.3 °C 18.1 °C 1018.5 hPa SE 8 km/h 17.7 km/h 54 % 0 mm
14:09 28.2 °C 17.7 °C 1018.5 hPa WSW 11.3 km/h 16.1 km/h 53 % 0 mm
14:14 28.2 °C 17.7 °C 1018.2 hPa SSW 9.7 km/h 16.1 km/h 53 % 0 mm
14:19 28.3 °C 18.4 °C 1018.2 hPa SW 3.2 km/h 17.7 km/h 55 % 0 mm
14:24 28.6 °C 17.8 °C 1018.2 hPa South 14.5 km/h 17.7 km/h 52 % 0 mm
14:30 28.6 °C 18.4 °C 1018.2 hPa South 9.7 km/h 24.1 km/h 54 % 0 mm
14:35 28.6 °C 17.5 °C 1017.8 hPa SE 6.4 km/h 24.1 km/h 51 % 0 mm
14:40 28.7 °C 18.5 °C 1017.8 hPa SSE 12.9 km/h 24.1 km/h 54 % 0 mm
14:45 28.7 °C 17.2 °C 1017.8 hPa South 6.4 km/h 22.5 km/h 50 % 0 mm
14:50 28.8 °C 18.3 °C 1017.8 hPa SW 3.2 km/h 22.5 km/h 53 % 0 mm
14:55 28.9 °C 17.7 °C 1017.5 hPa South 8 km/h 22.5 km/h 51 % 0 mm
15:00 28.9 °C 18.1 °C 1017.5 hPa South 4.8 km/h 19.3 km/h 52 % 0 mm
15:05 28.8 °C 16.7 °C 1017.5 hPa SE 9.7 km/h 25.7 km/h 48 % 0 mm
15:10 28.7 °C 16.6 °C 1017.5 hPa ESE 9.7 km/h 25.7 km/h 48 % 0 mm
15:15 28.8 °C 16.7 °C 1017.5 hPa South 6.4 km/h 22.5 km/h 48 % 0 mm
15:20 29 °C 17.5 °C 1017.5 hPa SW 8 km/h 20.9 km/h 50 % 0 mm
15:25 29 °C 17.2 °C 1017.2 hPa SE 8 km/h 19.3 km/h 49 % 0 mm
15:30 29 °C 17.5 °C 1017.2 hPa SSE 9.7 km/h 19.3 km/h 50 % 0 mm
15:35 29.2 °C 17.7 °C 1017.2 hPa SW 6.4 km/h 19.3 km/h 50 % 0 mm
15:40 29.4 °C 17.2 °C 1017.2 hPa SE 6.4 km/h 16.1 km/h 48 % 0 mm
15:45 29.6 °C 17.4 °C 1017.2 hPa SSE 8 km/h 16.1 km/h 48 % 0 mm
15:50 29.6 °C 18.1 °C 1017.2 hPa SSW 8 km/h 16.1 km/h 50 % 0 mm
15:55 29.7 °C 18.8 °C 1017.2 hPa SSW 20.9 km/h 20.9 km/h 52 % 0 mm
16:00 29.6 °C 17.1 °C 1016.8 hPa West 8 km/h 20.9 km/h 47 % 0 mm
16:05 29.6 °C 16.8 °C 1016.8 hPa South 11.3 km/h 20.9 km/h 46 % 0 mm
16:06 29.6 °C 16.8 °C 1016.8 hPa SW 9.7 km/h 20.9 km/h 46 % 0 mm
16:10 29.4 °C 16.9 °C 1016.8 hPa South 6.4 km/h 20.9 km/h 47 % 0 mm
16:15 29.4 °C 15.9 °C 1016.8 hPa SSW 8 km/h 20.9 km/h 44 % 0 mm
16:20 29.6 °C 16.8 °C 1016.8 hPa SW 4.8 km/h 19.3 km/h 46 % 0 mm
16:25 29.9 °C 17.4 °C 1016.8 hPa SSE 4.8 km/h 17.7 km/h 47 % 0 mm
16:30 29.9 °C 16 °C 1016.8 hPa SSE 16.1 km/h 16.1 km/h 43 % 0 mm
16:35 29.7 °C 15.8 °C 1016.8 hPa ESE 9.7 km/h 19.3 km/h 43 % 0 mm
16:40 29.4 °C 15.5 °C 1016.5 hPa SSE 8 km/h 19.3 km/h 43 % 0 mm
16:45 29.3 °C 15.8 °C 1016.5 hPa SSE 14.5 km/h 19.3 km/h 44 % 0 mm
16:50 29.3 °C 15.4 °C 1016.5 hPa SW 6.4 km/h 19.3 km/h 43 % 0 mm
16:55 29.3 °C 15.4 °C 1016.5 hPa SE 11.3 km/h 22.5 km/h 43 % 0 mm
17:00 29.2 °C 15.7 °C 1016.5 hPa SSE 9.7 km/h 22.5 km/h 44 % 0 mm
17:05 29.2 °C 15.7 °C 1016.5 hPa SSW 14.5 km/h 22.5 km/h 44 % 0 mm
17:10 29.1 °C 15.6 °C 1016.5 hPa SSE 11.3 km/h 19.3 km/h 44 % 0 mm
17:15 29.1 °C 15.2 °C 1016.5 hPa SSE 9.7 km/h 22.5 km/h 43 % 0 mm
17:20 29.2 °C 15 °C 1016.5 hPa SSE 12.9 km/h 22.5 km/h 42 % 0 mm
17:25 29.2 °C 15.3 °C 1016.5 hPa South 4.8 km/h 22.5 km/h 43 % 0 mm
17:30 29.1 °C 15.2 °C 1016.1 hPa SSW 14.5 km/h 19.3 km/h 43 % 0 mm
17:35 29.1 °C 15.2 °C 1016.1 hPa SSW 6.4 km/h 17.7 km/h 43 % 0 mm
17:40 28.8 °C 14.6 °C 1016.1 hPa SSE 12.9 km/h 17.7 km/h 42 % 0 mm
17:46 28.8 °C 15.3 °C 1016.5 hPa SE 9.7 km/h 19.3 km/h 44 % 0 mm
17:50 28.8 °C 15.7 °C 1016.5 hPa South 8 km/h 19.3 km/h 45 % 0 mm
17:55 28.7 °C 15.2 °C 1016.1 hPa South 9.7 km/h 19.3 km/h 44 % 0 mm
18:00 28.6 °C 15.2 °C 1016.5 hPa SE 9.7 km/h 19.3 km/h 44 % 0 mm
18:06 28.6 °C 14.8 °C 1016.1 hPa SSE 4.8 km/h 16.1 km/h 43 % 0 mm
18:11 28.5 °C 15.4 °C 1016.1 hPa SE 4.8 km/h 17.7 km/h 45 % 0 mm
18:16 28.5 °C 15.8 °C 1016.1 hPa SE 8 km/h 17.7 km/h 46 % 0 mm
18:21 28.4 °C 15 °C 1016.1 hPa SE 9.7 km/h 17.7 km/h 44 % 0 mm
18:26 28.3 °C 14.9 °C 1016.1 hPa SSW 4.8 km/h 17.7 km/h 44 % 0 mm
18:31 28.3 °C 15.2 °C 1016.1 hPa SSW 6.4 km/h 17.7 km/h 45 % 0 mm
18:36 28.2 °C 15.1 °C 1016.1 hPa South 11.3 km/h 17.7 km/h 45 % 0 mm
18:41 28.1 °C 15.4 °C 1016.1 hPa SSE 12.9 km/h 17.7 km/h 46 % 0 mm
18:46 27.9 °C 15.9 °C 1016.1 hPa SSE 14.5 km/h 17.7 km/h 48 % 0 mm
18:51 27.8 °C 15.8 °C 1016.1 hPa SSW 14.5 km/h 17.7 km/h 48 % 0 mm
18:56 27.6 °C 15.6 °C 1016.1 hPa SSE 9.7 km/h 16.1 km/h 48 % 0 mm
19:01 27.5 °C 15.8 °C 1016.1 hPa South 4.8 km/h 17.7 km/h 49 % 0 mm
19:06 27.4 °C 15.4 °C 1016.1 hPa SE 11.3 km/h 17.7 km/h 48 % 0 mm
19:11 27.2 °C 15.6 °C 1016.1 hPa SSE 8 km/h 17.7 km/h 49 % 0 mm
19:16 26.9 °C 15.9 °C 1016.1 hPa South 9.7 km/h 16.1 km/h 51 % 0 mm
19:21 26.7 °C 16 °C 1016.1 hPa SSW 4.8 km/h 19.3 km/h 52 % 0 mm
19:26 26.5 °C 15.8 °C 1016.1 hPa SSE 8 km/h 19.3 km/h 52 % 0 mm
19:31 26.3 °C 15.7 °C 1016.1 hPa South 6.4 km/h 19.3 km/h 52 % 0 mm
19:36 26.1 °C 15.8 °C 1016.1 hPa SSW 3.2 km/h 14.5 km/h 53 % 0 mm
19:41 25.8 °C 15.8 °C 1016.1 hPa SE 4.8 km/h 14.5 km/h 54 % 0 mm
19:46 25.6 °C 15.6 °C 1016.5 hPa SSE 4.8 km/h 11.3 km/h 54 % 0 mm
19:51 25.4 °C 15.4 °C 1016.5 hPa South 8 km/h 11.3 km/h 54 % 0 mm
19:56 25.3 °C 15.6 °C 1016.5 hPa South 3.2 km/h 11.3 km/h 55 % 0 mm
20:01 25.2 °C 15.5 °C 1016.8 hPa SSW 4.8 km/h 14.5 km/h 55 % 0 mm
20:06 25.1 °C 15.4 °C 1016.8 hPa SSW 3.2 km/h 14.5 km/h 55 % 0 mm
20:11 24.9 °C 15.5 °C 1016.8 hPa South 3.2 km/h 14.5 km/h 56 % 0 mm
20:16 24.7 °C 15.6 °C 1016.8 hPa SSW 3.2 km/h 11.3 km/h 57 % 0 mm
20:21 24.5 °C 15.7 °C 1017.2 hPa SE 3.2 km/h 6.4 km/h 58 % 0 mm
20:26 24.4 °C 15.6 °C 1017.2 hPa South 1.6 km/h 6.4 km/h 58 % 0 mm
20:31 24.3 °C 15.8 °C 1017.2 hPa SSW 1.6 km/h 6.4 km/h 59 % 0 mm
20:36 24.1 °C 15.8 °C 1017.2 hPa SSW 1.6 km/h 6.4 km/h 60 % 0 mm
20:41 23.9 °C 15.9 °C 1017.2 hPa SSW 3.2 km/h 6.4 km/h 61 % 0 mm
20:46 23.8 °C 16.1 °C 1017.2 hPa SSW 3.2 km/h 4.8 km/h 62 % 0 mm
20:51 23.7 °C 16 °C 1017.2 hPa SSW 3.2 km/h 6.4 km/h 62 % 0 mm
20:56 23.6 °C 16.1 °C 1017.5 hPa South 1.6 km/h 6.4 km/h 63 % 0 mm
21:01 23.4 °C 16.2 °C 1017.5 hPa South 3.2 km/h 6.4 km/h 64 % 0 mm
21:06 23.3 °C 16.1 °C 1017.5 hPa SSE 1.6 km/h 4.8 km/h 64 % 0 mm
21:11 23.2 °C 16.3 °C 1017.5 hPa South 3.2 km/h 4.8 km/h 65 % 0 mm
21:16 23.1 °C 16.4 °C 1017.5 hPa South 1.6 km/h 4.8 km/h 66 % 0 mm
21:21 23 °C 16.8 °C 1017.5 hPa SSW 4.8 km/h 6.4 km/h 68 % 0 mm
21:26 23 °C 17 °C 1017.5 hPa SSW 4.8 km/h 11.3 km/h 69 % 0 mm
21:31 23.1 °C 17.3 °C 1017.5 hPa South 6.4 km/h 12.9 km/h 70 % 0 mm
21:36 23.1 °C 17.6 °C 1017.5 hPa ESE 3.2 km/h 12.9 km/h 71 % 0 mm
21:41 23.1 °C 17.8 °C 1017.5 hPa SSW 4.8 km/h 12.9 km/h 72 % 0 mm
21:46 23.1 °C 18 °C 1017.8 hPa SE 8 km/h 12.9 km/h 73 % 0 mm
21:51 22.9 °C 17.8 °C 1017.8 hPa SSW 4.8 km/h 12.9 km/h 73 % 0 mm
21:57 22.9 °C 17.8 °C 1017.8 hPa SE 4.8 km/h 12.9 km/h 73 % 0 mm
22:02 22.8 °C 17.7 °C 1017.8 hPa SSE 4.8 km/h 12.9 km/h 73 % 0 mm
22:07 22.6 °C 17.5 °C 1017.8 hPa South 3.2 km/h 8 km/h 73 % 0 mm
22:12 22.4 °C 17.5 °C 1017.8 hPa SSW 3.2 km/h 8 km/h 74 % 0 mm
22:17 22.3 °C 17.4 °C 1017.8 hPa South 4.8 km/h 8 km/h 74 % 0 mm
22:22 22.2 °C 17.6 °C 1017.8 hPa SE 1.6 km/h 8 km/h 75 % 0 mm
22:27 22.1 °C 17.7 °C 1017.8 hPa South 3.2 km/h 9.7 km/h 76 % 0 mm
22:32 22.1 °C 18.1 °C 1018.2 hPa SSE 8 km/h 11.3 km/h 78 % 0 mm
22:37 22 °C 18.2 °C 1017.8 hPa SW 9.7 km/h 11.3 km/h 79 % 0 mm
22:42 22 °C 18.2 °C 1017.8 hPa SSE 8 km/h 14.5 km/h 79 % 0 mm
22:47 21.9 °C 18.3 °C 1017.8 hPa South 3.2 km/h 14.5 km/h 80 % 0 mm
22:52 21.9 °C 18.5 °C 1017.8 hPa SSW 8 km/h 14.5 km/h 81 % 0 mm
22:57 21.8 °C 18.4 °C 1017.8 hPa SSE 1.6 km/h 12.9 km/h 81 % 0 mm
23:02 21.7 °C 18.3 °C 1018.2 hPa South 3.2 km/h 12.9 km/h 81 % 0 mm
23:07 21.6 °C 18.4 °C 1018.2 hPa SW 4.8 km/h 12.9 km/h 82 % 0 mm
23:12 21.5 °C 18.5 °C 1018.2 hPa SE 6.4 km/h 12.9 km/h 83 % 0 mm
23:17 21.5 °C 18.7 °C 1017.8 hPa SSW 3.2 km/h 14.5 km/h 84 % 0 mm
23:22 21.4 °C 18.6 °C 1017.8 hPa South 6.4 km/h 14.5 km/h 84 % 0 mm
23:27 21.4 °C 18.8 °C 1018.2 hPa SE 6.4 km/h 14.5 km/h 85 % 0 mm
23:32 21.3 °C 18.7 °C 1018.2 hPa SSE 1.6 km/h 14.5 km/h 85 % 0 mm
23:37 21.2 °C 18.8 °C 1018.2 hPa SSE 4.8 km/h 12.9 km/h 86 % 0 mm
23:42 21.2 °C 18.8 °C 1018.2 hPa SSE 3.2 km/h 9.7 km/h 86 % 0 mm
23:47 21.1 °C 18.9 °C 1018.2 hPa SSE 4.8 km/h 9.7 km/h 87 % 0 mm
23:52 21 °C 18.8 °C 1018.5 hPa SSE 1.6 km/h 9.7 km/h 87 % 0 mm
23:57 20.9 °C 18.8 °C 1018.5 hPa SE 3.2 km/h 9.7 km/h 88 % 0 mm
Spring, Texas: Villages of Bridgestone
Compliments of Weather Underground - 2.75 mb

Script developed by  Jim McMurry - jmcmurry@mwt.net Adapted for the template by  Wim van der Kuil - Leuven-Template.eu

You find our weather info also at:

UK Metoffice

WeatherCloud

Weather Underground

Mid-South Weather Network

AWEKAS

Citizen Weather Observer Program (CWOP)

HAMweather, WeatherForYou, PWS Weather

Equipment we use:

Weather-station
Davis Vantage Vue

Weather-program
Meteohub

Weather-server
Debian 7.9 x86 (Guest)

Provider
DreamHost

Davis Vantage Vue

Meteohub

Debian 7.9 x86 (Guest)

DreamHost